Check out our new BloomSky Weather System.

Active alerts


No alerts


Thunder radar  blitzortung!


Rain radar more information rain snow radar


Visit our other weather sites:

Template documentation
and downloads

And another site



Weather Underground History page Text

Daily Summary for May 8, 2017 Units:  Metric    English   Both
« Previous Day
Next Day »
Daily Weekly Monthly Yearly Custom
  High: Low: Average:
Temperature: 28.8 °C 17.1 °C 22.9 °C
Dew Point: 19.5 °C 15.3 °C 17.5 °C
Humidity: 93 % 53 % 73 %
Wind Speed: 22.5 km/h 0 km/h 5 km/h
Wind Gust: 32.2 km/h - -
Wind:- - SE
Pressure: 1016.8 hPa 1014.4 hPa -
Precipitation: 0 mm    
Historical Graphs
 
 
Tabular Data for May 8, 2017
Time Temperature Dew Point Pressure Wind Wind Speed Wind Gust Humidity Rainfall Rate (Hourly)
00:01 20.3 °C 15.7 °C 1015.1 hPa Calm   3.2 km/h 75 % 0 mm
00:06 20.1 °C 15.7 °C 1015.1 hPa Calm   1.6 km/h 76 % 0 mm
00:11 19.9 °C 15.7 °C 1015.1 hPa Calm   1.6 km/h 77 % 0 mm
00:16 19.7 °C 15.6 °C 1015.1 hPa Calm   1.6 km/h 77 % 0 mm
00:21 19.6 °C 15.7 °C 1015.1 hPa Calm   1.6 km/h 78 % 0 mm
00:22 19.6 °C 15.7 °C 1015.1 hPa Calm   1.6 km/h 78 % 0 mm
00:27 19.4 °C 15.5 °C 1015.1 hPa Calm   1.6 km/h 78 % 0 mm
00:32 19.3 °C 15.6 °C 1015.1 hPa Calm   1.6 km/h 79 % 0 mm
00:37 19.2 °C 15.7 °C 1015.1 hPa Calm   1.6 km/h 80 % 0 mm
00:42 19.1 °C 15.6 °C 1015.1 hPa Calm     80 % 0 mm
00:47 18.9 °C 15.6 °C 1015.1 hPa Calm     81 % 0 mm
00:52 18.8 °C 15.5 °C 1015.1 hPa Calm     81 % 0 mm
00:57 18.7 °C 15.6 °C 1014.8 hPa Calm     82 % 0 mm
01:02 18.6 °C 15.5 °C 1014.8 hPa Calm     82 % 0 mm
01:07 18.4 °C 15.5 °C 1014.8 hPa Calm     83 % 0 mm
01:12 18.3 °C 15.4 °C 1015.1 hPa Calm     83 % 0 mm
01:17 18.2 °C 15.5 °C 1014.8 hPa Calm     84 % 0 mm
01:22 18.1 °C 15.4 °C 1014.8 hPa Calm     84 % 0 mm
01:27 18.1 °C 15.5 °C 1014.8 hPa Calm     85 % 0 mm
01:32 18.1 °C 15.5 °C 1014.8 hPa Calm     85 % 0 mm
01:37 17.9 °C 15.3 °C 1014.8 hPa Calm   1.6 km/h 85 % 0 mm
01:42 17.9 °C 15.5 °C 1014.8 hPa Calm   1.6 km/h 86 % 0 mm
01:47 17.8 °C 15.4 °C 1014.8 hPa Calm   1.6 km/h 86 % 0 mm
01:52 17.7 °C 15.3 °C 1014.4 hPa Calm   1.6 km/h 86 % 0 mm
01:57 17.7 °C 15.5 °C 1014.4 hPa Calm     87 % 0 mm
02:02 17.6 °C 15.4 °C 1014.4 hPa Calm     87 % 0 mm
02:07 17.6 °C 15.4 °C 1014.8 hPa Calm     87 % 0 mm
02:12 17.5 °C 15.3 °C 1014.8 hPa Calm     87 % 0 mm
02:17 17.4 °C 15.4 °C 1014.8 hPa Calm     88 % 0 mm
02:22 17.5 °C 15.5 °C 1014.8 hPa Calm     88 % 0 mm
02:27 17.6 °C 15.6 °C 1014.4 hPa Calm     88 % 0 mm
02:32 17.7 °C 15.7 °C 1014.4 hPa Calm     88 % 0 mm
02:37 17.7 °C 15.7 °C 1014.4 hPa Calm     88 % 0 mm
02:42 17.8 °C 15.8 °C 1014.4 hPa Calm     88 % 0 mm
02:47 17.9 °C 15.9 °C 1014.4 hPa Calm   1.6 km/h 88 % 0 mm
02:52 18.1 °C 16.1 °C 1014.4 hPa Calm   1.6 km/h 88 % 0 mm
02:57 18.1 °C 16.1 °C 1014.4 hPa Calm   1.6 km/h 88 % 0 mm
03:02 18.1 °C 16.1 °C 1014.4 hPa Calm     88 % 0 mm
03:07 18.1 °C 16.1 °C 1014.4 hPa Calm     88 % 0 mm
03:12 18.1 °C 16.1 °C 1014.4 hPa Calm     88 % 0 mm
03:17 18.1 °C 16.1 °C 1014.4 hPa Calm   1.6 km/h 88 % 0 mm
03:22 17.9 °C 15.9 °C 1014.4 hPa Calm   1.6 km/h 88 % 0 mm
03:27 17.8 °C 15.8 °C 1014.4 hPa Calm   1.6 km/h 88 % 0 mm
03:32 17.7 °C 15.7 °C 1014.4 hPa Calm     88 % 0 mm
03:37 17.6 °C 15.6 °C 1014.4 hPa Calm     88 % 0 mm
03:42 17.5 °C 15.7 °C 1014.4 hPa Calm     89 % 0 mm
03:44 17.5 °C 15.7 °C 1014.4 hPa Calm     89 % 0 mm
03:49 17.3 °C 15.5 °C 1014.8 hPa Calm     89 % 0 mm
03:54 17.3 °C 15.6 °C 1014.8 hPa Calm     90 % 0 mm
03:59 17.2 °C 15.5 °C 1014.8 hPa Calm     90 % 0 mm
04:04 17.3 °C 15.6 °C 1014.8 hPa Calm     90 % 0 mm
04:09 17.3 °C 15.8 °C 1014.8 hPa Calm     91 % 0 mm
04:14 17.4 °C 15.9 °C 1014.8 hPa Calm   1.6 km/h 91 % 0 mm
04:19 17.5 °C 16 °C 1014.8 hPa Calm   1.6 km/h 91 % 0 mm
04:24 17.5 °C 15.8 °C 1014.8 hPa Calm   1.6 km/h 90 % 0 mm
04:29 17.5 °C 15.8 °C 1014.8 hPa Calm   1.6 km/h 90 % 0 mm
04:34 17.5 °C 15.8 °C 1014.8 hPa Calm   1.6 km/h 90 % 0 mm
04:39 17.5 °C 15.8 °C 1014.8 hPa Calm   1.6 km/h 90 % 0 mm
04:44 17.5 °C 16 °C 1014.8 hPa Calm   1.6 km/h 91 % 0 mm
04:49 17.6 °C 15.9 °C 1014.8 hPa Calm   1.6 km/h 90 % 0 mm
04:54 17.6 °C 16.1 °C 1014.8 hPa Calm   1.6 km/h 91 % 0 mm
04:59 17.6 °C 16.1 °C 1014.8 hPa Calm   1.6 km/h 91 % 0 mm
05:04 17.6 °C 16.1 °C 1014.8 hPa Calm   1.6 km/h 91 % 0 mm
05:09 17.7 °C 16.2 °C 1014.8 hPa Calm   1.6 km/h 91 % 0 mm
05:14 17.7 °C 16.2 °C 1014.8 hPa Calm   1.6 km/h 91 % 0 mm
05:19 17.7 °C 16.2 °C 1014.8 hPa Calm   1.6 km/h 91 % 0 mm
05:24 17.7 °C 16.2 °C 1014.8 hPa Calm   1.6 km/h 91 % 0 mm
05:29 17.7 °C 16.2 °C 1014.8 hPa Calm   1.6 km/h 91 % 0 mm
05:34 17.6 °C 16.1 °C 1014.8 hPa Calm   1.6 km/h 91 % 0 mm
05:39 17.6 °C 16.1 °C 1014.8 hPa Calm   1.6 km/h 91 % 0 mm
05:44 17.5 °C 16 °C 1015.1 hPa Calm   1.6 km/h 91 % 0 mm
05:49 17.4 °C 15.9 °C 1015.1 hPa Calm   1.6 km/h 91 % 0 mm
05:54 17.4 °C 15.9 °C 1014.8 hPa Calm     91 % 0 mm
05:59 17.3 °C 15.8 °C 1015.1 hPa Calm     91 % 0 mm
06:04 17.3 °C 15.8 °C 1015.1 hPa Calm   1.6 km/h 91 % 0 mm
06:09 17.2 °C 15.9 °C 1015.1 hPa Calm   1.6 km/h 92 % 0 mm
06:14 17.2 °C 15.9 °C 1015.1 hPa Calm   1.6 km/h 92 % 0 mm
06:19 17.1 °C 15.8 °C 1015.1 hPa Calm   1.6 km/h 92 % 0 mm
06:24 17.1 °C 15.8 °C 1015.5 hPa Calm   1.6 km/h 92 % 0 mm
06:29 17.1 °C 15.8 °C 1015.5 hPa Calm   1.6 km/h 92 % 0 mm
06:34 17.1 °C 16 °C 1015.5 hPa Calm     93 % 0 mm
06:39 17.2 °C 16.1 °C 1015.5 hPa Calm     93 % 0 mm
06:44 17.3 °C 16.2 °C 1015.5 hPa Calm     93 % 0 mm
06:49 17.4 °C 16.3 °C 1015.5 hPa Calm     93 % 0 mm
06:54 17.4 °C 16.3 °C 1015.5 hPa Calm     93 % 0 mm
06:59 17.6 °C 16.5 °C 1015.5 hPa Calm   1.6 km/h 93 % 0 mm
07:04 17.7 °C 16.4 °C 1015.5 hPa Calm   1.6 km/h 92 % 0 mm
07:09 17.7 °C 16.4 °C 1015.8 hPa Calm   1.6 km/h 92 % 0 mm
07:14 17.9 °C 16.6 °C 1015.8 hPa Calm   1.6 km/h 92 % 0 mm
07:19 18.1 °C 16.8 °C 1015.8 hPa Calm   1.6 km/h 92 % 0 mm
07:24 18.2 °C 16.9 °C 1015.8 hPa Calm   1.6 km/h 92 % 0 mm
07:29 18.5 °C 17.2 °C 1016.1 hPa Calm   1.6 km/h 92 % 0 mm
07:30 18.6 °C 17.3 °C 1016.1 hPa Calm   1.6 km/h 92 % 0 mm
07:35 18.8 °C 17.3 °C 1016.1 hPa Calm   1.6 km/h 91 % 0 mm
07:40 18.9 °C 17.2 °C 1016.1 hPa Calm   1.6 km/h 90 % 0 mm
07:45 19.1 °C 17.4 °C 1016.1 hPa Calm   1.6 km/h 90 % 0 mm
07:50 19.3 °C 17.4 °C 1016.1 hPa Calm   1.6 km/h 89 % 0 mm
07:55 19.5 °C 17.6 °C 1016.1 hPa Calm   1.6 km/h 89 % 0 mm
08:00 19.7 °C 17.7 °C 1016.1 hPa Calm   1.6 km/h 88 % 0 mm
08:05 19.9 °C 17.9 °C 1016.1 hPa Calm   1.6 km/h 88 % 0 mm
08:10 20.2 °C 18 °C 1016.5 hPa Calm   1.6 km/h 87 % 0 mm
08:15 20.3 °C 17.7 °C 1016.5 hPa Calm   3.2 km/h 85 % 0 mm
08:20 20.7 °C 18.1 °C 1016.1 hPa NE 1.6 km/h 3.2 km/h 85 % 0 mm
08:26 21.3 °C 18.3 °C 1016.1 hPa Calm   3.2 km/h 83 % 0 mm
08:31 21.9 °C 18.3 °C 1016.5 hPa Calm   4.8 km/h 80 % 0 mm
08:36 22.2 °C 18.2 °C 1016.5 hPa East 1.6 km/h 6.4 km/h 78 % 0 mm
08:41 22.4 °C 18 °C 1016.5 hPa East 1.6 km/h 6.4 km/h 76 % 0 mm
08:46 22.3 °C 17.9 °C 1016.5 hPa Calm   6.4 km/h 76 % 0 mm
08:51 22.4 °C 18 °C 1016.5 hPa Calm   6.4 km/h 76 % 0 mm
08:56 22.6 °C 17.9 °C 1016.5 hPa Calm   4.8 km/h 75 % 0 mm
09:01 22.8 °C 17.9 °C 1016.5 hPa East 8 km/h 8 km/h 74 % 0 mm
09:06 22.9 °C 18 °C 1016.5 hPa ESE 8 km/h 9.7 km/h 74 % 0 mm
09:11 23.2 °C 18.3 °C 1016.5 hPa ENE 1.6 km/h 11.3 km/h 74 % 0 mm
09:16 23.4 °C 18.1 °C 1016.5 hPa ESE 4.8 km/h 11.3 km/h 72 % 0 mm
09:21 23.8 °C 18.4 °C 1016.5 hPa SE 4.8 km/h 14.5 km/h 72 % 0 mm
09:26 23.9 °C 18.3 °C 1016.5 hPa NW 3.2 km/h 14.5 km/h 71 % 0 mm
09:31 24.2 °C 18.4 °C 1016.5 hPa East 6.4 km/h 14.5 km/h 70 % 0 mm
09:36 24.4 °C 18.6 °C 1016.5 hPa East 6.4 km/h 14.5 km/h 70 % 0 mm
09:41 24.7 °C 18.6 °C 1016.5 hPa SSE 1.6 km/h 11.3 km/h 69 % 0 mm
09:46 25.2 °C 18.4 °C 1016.5 hPa SE 8 km/h 12.9 km/h 66 % 0 mm
09:51 25.3 °C 18 °C 1016.5 hPa SSE 6.4 km/h 12.9 km/h 64 % 0 mm
09:56 25.3 °C 18 °C 1016.5 hPa SSE 11.3 km/h 17.7 km/h 64 % 0 mm
10:01 25.4 °C 17.8 °C 1016.5 hPa ENE 9.7 km/h 17.7 km/h 63 % 0 mm
10:06 25.2 °C 17.7 °C 1016.5 hPa SE 9.7 km/h 17.7 km/h 63 % 0 mm
10:11 25.1 °C 17.8 °C 1016.8 hPa ESE 6.4 km/h 17.7 km/h 64 % 0 mm
10:16 25.2 °C 17.9 °C 1016.8 hPa SE 4.8 km/h 16.1 km/h 64 % 0 mm
10:21 25.3 °C 18 °C 1016.8 hPa South 8 km/h 14.5 km/h 64 % 0 mm
10:26 25.5 °C 18.4 °C 1016.8 hPa ESE 3.2 km/h 14.5 km/h 65 % 0 mm
10:31 25.3 °C 18 °C 1016.8 hPa ESE 8 km/h 17.7 km/h 64 % 0 mm
10:36 25.3 °C 18 °C 1016.8 hPa ENE 6.4 km/h 17.7 km/h 64 % 0 mm
10:41 25.4 °C 17.8 °C 1016.8 hPa ESE 11.3 km/h 17.7 km/h 63 % 0 mm
10:46 25.7 °C 17.9 °C 1016.8 hPa SE 6.4 km/h 16.1 km/h 62 % 0 mm
10:51 26.1 °C 18.2 °C 1016.8 hPa ESE 6.4 km/h 16.1 km/h 62 % 0 mm
10:56 26.2 °C 18.1 °C 1016.5 hPa SE 4.8 km/h 16.1 km/h 61 % 0 mm
11:01 26.3 °C 18.4 °C 1016.5 hPa ESE 4.8 km/h 16.1 km/h 62 % 0 mm
11:06 26.8 °C 18.6 °C 1016.8 hPa ENE 6.4 km/h 14.5 km/h 61 % 0 mm
11:11 26.8 °C 18.1 °C 1016.8 hPa SE 16.1 km/h 19.3 km/h 59 % 0 mm
11:16 26.8 °C 18.1 °C 1016.8 hPa South 11.3 km/h 19.3 km/h 59 % 0 mm
11:21 26.7 °C 18 °C 1016.8 hPa South 6.4 km/h 19.3 km/h 59 % 0 mm
11:26 26.8 °C 17.8 °C 1016.8 hPa ESE 12.9 km/h 19.3 km/h 58 % 0 mm
11:31 26.6 °C 17.9 °C 1016.8 hPa SSE 6.4 km/h 19.3 km/h 59 % 0 mm
11:36 26.7 °C 17.7 °C 1016.8 hPa East 6.4 km/h 19.3 km/h 58 % 0 mm
11:41 26.6 °C 17.7 °C 1016.8 hPa ESE 4.8 km/h 19.3 km/h 58 % 0 mm
11:46 26.7 °C 17.7 °C 1016.8 hPa SE 8 km/h 14.5 km/h 58 % 0 mm
11:51 26.7 °C 17.7 °C 1016.8 hPa ESE 4.8 km/h 12.9 km/h 58 % 0 mm
11:57 26.8 °C 17.6 °C 1016.8 hPa SSE 8 km/h 17.7 km/h 57 % 0 mm
12:02 27.1 °C 18.1 °C 1016.8 hPa SSE 12.9 km/h 17.7 km/h 58 % 0 mm
12:07 27 °C 17.8 °C 1016.8 hPa SW 6.4 km/h 17.7 km/h 57 % 0 mm
12:12 27.1 °C 18.1 °C 1016.8 hPa ESE 6.4 km/h 17.7 km/h 58 % 0 mm
12:20 27.1 °C 17.6 °C 1016.5 hPa SSE 9.7 km/h 17.7 km/h 56 % 0 mm
12:25 27.3 °C 17.5 °C 1016.5 hPa SSE 6.4 km/h 17.7 km/h 55 % 0 mm
12:30 27.7 °C 18.1 °C 1016.5 hPa SSE 9.7 km/h 19.3 km/h 56 % 0 mm
12:35 27.9 °C 17.7 °C 1016.5 hPa SE 6.4 km/h 19.3 km/h 54 % 0 mm
12:40 27.8 °C 17.3 °C 1016.1 hPa East 3.2 km/h 19.3 km/h 53 % 0 mm
12:45 27.8 °C 17.9 °C 1016.1 hPa SSW 11.3 km/h 16.1 km/h 55 % 0 mm
12:50 27.8 °C 18.2 °C 1016.1 hPa SE 6.4 km/h 19.3 km/h 56 % 0 mm
12:55 27.9 °C 17.4 °C 1016.1 hPa SSE 4.8 km/h 19.3 km/h 53 % 0 mm
13:00 27.9 °C 18.3 °C 1016.1 hPa ESE 8 km/h 19.3 km/h 56 % 0 mm
13:05 28.1 °C 18.2 °C 1016.1 hPa SSE 9.7 km/h 17.7 km/h 55 % 0 mm
13:10 27.9 °C 18.3 °C 1016.1 hPa SE 8 km/h 20.9 km/h 56 % 0 mm
13:15 28.1 °C 18.2 °C 1016.1 hPa SSE 11.3 km/h 24.1 km/h 55 % 0 mm
13:20 27.9 °C 18 °C 1015.8 hPa ESE 6.4 km/h 24.1 km/h 55 % 0 mm
13:25 28.2 °C 18.9 °C 1015.8 hPa NE 11.3 km/h 24.1 km/h 57 % 0 mm
13:30 28.4 °C 18.5 °C 1015.8 hPa South 9.7 km/h 17.7 km/h 55 % 0 mm
13:35 28.6 °C 18.7 °C 1015.5 hPa SSE 6.4 km/h 17.7 km/h 55 % 0 mm
13:40 28.8 °C 18.9 °C 1015.5 hPa SE 14.5 km/h 20.9 km/h 55 % 0 mm
13:45 28.6 °C 18.7 °C 1015.5 hPa SSE 6.4 km/h 20.9 km/h 55 % 0 mm
13:50 28.2 °C 18.3 °C 1015.5 hPa East 9.7 km/h 20.9 km/h 55 % 0 mm
13:55 27.9 °C 18.3 °C 1015.5 hPa SSE 8 km/h 22.5 km/h 56 % 0 mm
14:00 28 °C 19 °C 1015.5 hPa SE 4.8 km/h 22.5 km/h 58 % 0 mm
14:05 28.4 °C 19.1 °C 1015.5 hPa SSW 11.3 km/h 22.5 km/h 57 % 0 mm
14:10 28.6 °C 19 °C 1015.5 hPa ESE 14.5 km/h 22.5 km/h 56 % 0 mm
14:15 28.7 °C 19.3 °C 1015.5 hPa SE 8 km/h 32.2 km/h 57 % 0 mm
14:20 28.8 °C 19.4 °C 1015.5 hPa SE 11.3 km/h 32.2 km/h 57 % 0 mm
14:25 28.4 °C 19.1 °C 1015.5 hPa SE 9.7 km/h 32.2 km/h 57 % 0 mm
14:30 28.4 °C 19.1 °C 1015.5 hPa SE 9.7 km/h 25.7 km/h 57 % 0 mm
14:35 28.3 °C 19.5 °C 1015.5 hPa SE 22.5 km/h 25.7 km/h 59 % 0 mm
14:40 28 °C 19.5 °C 1015.5 hPa SE 16.1 km/h 25.7 km/h 60 % 0 mm
14:45 28.2 °C 19.4 °C 1015.5 hPa SE 16.1 km/h 22.5 km/h 59 % 0 mm
14:51 27.8 °C 19.1 °C 1015.1 hPa SSE 9.7 km/h 22.5 km/h 59 % 0 mm
14:56 27.6 °C 18.9 °C 1015.1 hPa SE 9.7 km/h 25.7 km/h 59 % 0 mm
15:01 27.5 °C 19 °C 1015.5 hPa ESE 9.7 km/h 25.7 km/h 60 % 0 mm
15:06 27.9 °C 19.4 °C 1015.5 hPa SE 11.3 km/h 25.7 km/h 60 % 0 mm
15:10 27.9 °C 18.9 °C 1015.1 hPa ESE 14.5 km/h 22.5 km/h 58 % 0 mm
15:15 27.7 °C 18.7 °C 1015.1 hPa ENE 9.7 km/h 22.5 km/h 58 % 0 mm
15:20 27.5 °C 19 °C 1015.1 hPa East 12.9 km/h 20.9 km/h 60 % 0 mm
15:25 27.7 °C 19.2 °C 1015.1 hPa SE 17.7 km/h 27.4 km/h 60 % 0 mm
15:30 27.9 °C 18.9 °C 1015.1 hPa East 19.3 km/h 27.4 km/h 58 % 0 mm
15:36 28.2 °C 19.2 °C 1014.8 hPa South 12.9 km/h 27.4 km/h 58 % 0 mm
15:41 28.1 °C 19.1 °C 1014.8 hPa SSW 17.7 km/h 27.4 km/h 58 % 0 mm
15:46 28.3 °C 19 °C 1014.8 hPa East 12.9 km/h 22.5 km/h 57 % 0 mm
15:51 28.2 °C 19.2 °C 1014.8 hPa ESE 14.5 km/h 27.4 km/h 58 % 0 mm
15:56 28.2 °C 19.2 °C 1014.4 hPa SSE 11.3 km/h 27.4 km/h 58 % 0 mm
16:01 28.6 °C 19.2 °C 1014.4 hPa ESE 19.3 km/h 27.4 km/h 57 % 0 mm
16:06 28.2 °C 19.2 °C 1014.4 hPa SSE 17.7 km/h 24.1 km/h 58 % 0 mm
16:11 27.9 °C 19.4 °C 1014.4 hPa ENE 14.5 km/h 24.1 km/h 60 % 0 mm
16:16 27.7 °C 19.5 °C 1014.4 hPa SE 6.4 km/h 24.1 km/h 61 % 0 mm
16:21 27.8 °C 19.1 °C 1014.4 hPa SSE 4.8 km/h 24.1 km/h 59 % 0 mm
16:26 27.6 °C 19.4 °C 1014.4 hPa ESE 9.7 km/h 24.1 km/h 61 % 0 mm
16:31 27.8 °C 19.1 °C 1014.4 hPa SSE 14.5 km/h 29 km/h 59 % 0 mm
16:36 27.9 °C 19.1 °C 1014.4 hPa SE 16.1 km/h 29 km/h 59 % 0 mm
16:41 27.9 °C 19.1 °C 1014.4 hPa South 17.7 km/h 29 km/h 59 % 0 mm
16:46 27.9 °C 19.1 °C 1014.4 hPa SE 16.1 km/h 22.5 km/h 59 % 0 mm
16:51 27.6 °C 19.1 °C 1014.4 hPa SE 9.7 km/h 24.1 km/h 60 % 0 mm
16:56 27.7 °C 19 °C 1014.4 hPa East 16.1 km/h 27.4 km/h 59 % 0 mm
17:01 27.4 °C 18.9 °C 1014.4 hPa SE 6.4 km/h 27.4 km/h 60 % 0 mm
17:06 27.4 °C 18.9 °C 1014.4 hPa SE 9.7 km/h 27.4 km/h 60 % 0 mm
17:11 26.9 °C 18.7 °C 1014.4 hPa ESE 14.5 km/h 25.7 km/h 61 % 0 mm
17:16 26.7 °C 18.8 °C 1014.4 hPa East 4.8 km/h 25.7 km/h 62 % 0 mm
17:21 26.7 °C 19.1 °C 1014.4 hPa SSE 6.4 km/h 25.7 km/h 63 % 0 mm
17:26 26.7 °C 18.8 °C 1014.4 hPa SE 11.3 km/h 25.7 km/h 62 % 0 mm
17:31 26.7 °C 19.1 °C 1014.4 hPa SE 16.1 km/h 25.7 km/h 63 % 0 mm
17:36 26.9 °C 19 °C 1014.4 hPa ENE 9.7 km/h 25.7 km/h 62 % 0 mm
17:41 26.8 °C 19.2 °C 1014.4 hPa SE 6.4 km/h 20.9 km/h 63 % 0 mm
17:46 26.7 °C 19.1 °C 1014.4 hPa SE 6.4 km/h 20.9 km/h 63 % 0 mm
17:51 26.7 °C 18.8 °C 1014.4 hPa East 11.3 km/h 20.9 km/h 62 % 0 mm
17:56 26.3 °C 18.7 °C 1014.4 hPa South 8 km/h 24.1 km/h 63 % 0 mm
18:01 26.2 °C 18.3 °C 1014.4 hPa East 11.3 km/h 24.1 km/h 62 % 0 mm
18:06 26.3 °C 18.7 °C 1014.4 hPa SE 6.4 km/h 24.1 km/h 63 % 0 mm
18:11 26.3 °C 18.4 °C 1014.4 hPa ESE 6.4 km/h 24.1 km/h 62 % 0 mm
18:16 26.2 °C 18.3 °C 1014.4 hPa SE 11.3 km/h 19.3 km/h 62 % 0 mm
18:21 26.3 °C 18.4 °C 1014.4 hPa ESE 9.7 km/h 19.3 km/h 62 % 0 mm
18:26 26.2 °C 18.3 °C 1014.4 hPa SE 17.7 km/h 22.5 km/h 62 % 0 mm
18:31 26.1 °C 18.2 °C 1014.8 hPa ESE 9.7 km/h 22.5 km/h 62 % 0 mm
18:36 26.1 °C 18.2 °C 1014.8 hPa SE 9.7 km/h 22.5 km/h 62 % 0 mm
18:41 26 °C 18.2 °C 1014.8 hPa SE 6.4 km/h 17.7 km/h 62 % 0 mm
18:46 25.7 °C 17.9 °C 1014.8 hPa East 9.7 km/h 22.5 km/h 62 % 0 mm
18:51 25.6 °C 18 °C 1014.8 hPa SE 6.4 km/h 22.5 km/h 63 % 0 mm
18:56 25.4 °C 17.8 °C 1014.8 hPa SSE 6.4 km/h 22.5 km/h 63 % 0 mm
19:01 25.3 °C 18 °C 1014.8 hPa SE 12.9 km/h 17.7 km/h 64 % 0 mm
19:02 25.3 °C 18 °C 1014.8 hPa East 14.5 km/h 17.7 km/h 64 % 0 mm
19:07 25.2 °C 17.9 °C 1014.8 hPa SSE 9.7 km/h 19.3 km/h 64 % 0 mm
19:12 25.1 °C 18.1 °C 1015.1 hPa ENE 8 km/h 19.3 km/h 65 % 0 mm
19:17 25 °C 18 °C 1015.1 hPa SSW 3.2 km/h 22.5 km/h 65 % 0 mm
19:22 24.9 °C 18.1 °C 1014.8 hPa South 3.2 km/h 22.5 km/h 66 % 0 mm
19:27 24.8 °C 18 °C 1015.1 hPa SSE 9.7 km/h 22.5 km/h 66 % 0 mm
19:32 24.8 °C 18.3 °C 1015.1 hPa SSE 4.8 km/h 22.5 km/h 67 % 0 mm
19:37 24.7 °C 18.2 °C 1015.1 hPa South 12.9 km/h 22.5 km/h 67 % 0 mm
19:43 24.6 °C 18.3 °C 1015.1 hPa South 9.7 km/h 20.9 km/h 68 % 0 mm
19:48 24.5 °C 18.2 °C 1015.1 hPa East 12.9 km/h 20.9 km/h 68 % 0 mm
19:53 24.4 °C 18.1 °C 1015.5 hPa SSE 12.9 km/h 20.9 km/h 68 % 0 mm
19:57 24.3 °C 18.2 °C 1015.1 hPa ENE 8 km/h 17.7 km/h 69 % 0 mm
20:02 24.2 °C 18.2 °C 1015.1 hPa South 4.8 km/h 17.7 km/h 69 % 0 mm
20:07 24.1 °C 18.1 °C 1015.1 hPa SE 6.4 km/h 17.7 km/h 69 % 0 mm
20:12 24 °C 18.2 °C 1015.5 hPa SSE 8 km/h 14.5 km/h 70 % 0 mm
20:18 23.9 °C 18.1 °C 1015.5 hPa SE 8 km/h 14.5 km/h 70 % 0 mm
20:22 23.8 °C 18.2 °C 1015.5 hPa SE 6.4 km/h 14.5 km/h 71 % 0 mm
20:28 23.8 °C 18.2 °C 1015.5 hPa SE 3.2 km/h 14.5 km/h 71 % 0 mm
20:33 23.7 °C 18.1 °C 1015.5 hPa SE 11.3 km/h 14.5 km/h 71 % 0 mm
20:38 23.7 °C 18.1 °C 1015.8 hPa ESE 6.4 km/h 16.1 km/h 71 % 0 mm
20:43 23.6 °C 18.3 °C 1015.8 hPa SSE 6.4 km/h 16.1 km/h 72 % 0 mm
20:48 23.6 °C 18.3 °C 1015.5 hPa SE 6.4 km/h 16.1 km/h 72 % 0 mm
20:53 23.5 °C 18.2 °C 1015.8 hPa SE 4.8 km/h 14.5 km/h 72 % 0 mm
20:58 23.4 °C 18.1 °C 1015.8 hPa ENE 9.7 km/h 14.5 km/h 72 % 0 mm
21:03 23.4 °C 18.1 °C 1015.8 hPa SSE 4.8 km/h 14.5 km/h 72 % 0 mm
21:08 23.3 °C 18.2 °C 1015.8 hPa SE 4.8 km/h 12.9 km/h 73 % 0 mm
21:13 23.3 °C 18.2 °C 1016.1 hPa SE 4.8 km/h 11.3 km/h 73 % 0 mm
21:18 23.2 °C 18.1 °C 1015.8 hPa SE 6.4 km/h 11.3 km/h 73 % 0 mm
21:23 23.2 °C 18.1 °C 1016.1 hPa SE 4.8 km/h 11.3 km/h 73 % 0 mm
21:28 23.1 °C 18.2 °C 1016.1 hPa SSE 3.2 km/h 8 km/h 74 % 0 mm
21:33 23.1 °C 18.2 °C 1016.1 hPa ESE 1.6 km/h 8 km/h 74 % 0 mm
21:38 23 °C 18.1 °C 1016.1 hPa ESE 4.8 km/h 8 km/h 74 % 0 mm
21:43 22.9 °C 18 °C 1016.1 hPa South 1.6 km/h 9.7 km/h 74 % 0 mm
21:48 22.9 °C 18 °C 1016.1 hPa East 6.4 km/h 9.7 km/h 74 % 0 mm
21:53 22.8 °C 17.9 °C 1016.1 hPa SE 3.2 km/h 9.7 km/h 74 % 0 mm
21:58 22.7 °C 17.8 °C 1015.8 hPa SE 1.6 km/h 8 km/h 74 % 0 mm
22:03 22.7 °C 17.6 °C 1015.8 hPa ESE 4.8 km/h 9.7 km/h 73 % 0 mm
22:08 22.7 °C 17.6 °C 1015.8 hPa SSE 3.2 km/h 9.7 km/h 73 % 0 mm
22:13 22.7 °C 17.6 °C 1016.1 hPa ESE 1.6 km/h 11.3 km/h 73 % 0 mm
22:18 22.6 °C 17.5 °C 1016.1 hPa SE 4.8 km/h 11.3 km/h 73 % 0 mm
22:23 22.6 °C 17.5 °C 1016.1 hPa SE 9.7 km/h 11.3 km/h 73 % 0 mm
22:28 22.6 °C 17.5 °C 1016.1 hPa East 3.2 km/h 11.3 km/h 73 % 0 mm
22:33 22.4 °C 17.5 °C 1016.1 hPa SE 1.6 km/h 11.3 km/h 74 % 0 mm
22:38 22.4 °C 17.5 °C 1016.1 hPa ESE 1.6 km/h 11.3 km/h 74 % 0 mm
22:43 22.3 °C 17.4 °C 1016.1 hPa SE 8 km/h 8 km/h 74 % 0 mm
22:48 22.3 °C 17.4 °C 1016.1 hPa Calm   8 km/h 74 % 0 mm
22:53 22.2 °C 17.6 °C 1016.1 hPa SE 3.2 km/h 8 km/h 75 % 0 mm
22:58 22.1 °C 17.5 °C 1016.1 hPa SE 1.6 km/h 8 km/h 75 % 0 mm
23:03 22.1 °C 17.5 °C 1016.1 hPa SE 3.2 km/h 4.8 km/h 75 % 0 mm
23:08 21.9 °C 17.3 °C 1016.1 hPa SE 1.6 km/h 6.4 km/h 75 % 0 mm
23:13 21.9 °C 17.5 °C 1016.1 hPa SE 1.6 km/h 6.4 km/h 76 % 0 mm
23:18 21.8 °C 17.4 °C 1016.1 hPa ESE 3.2 km/h 6.4 km/h 76 % 0 mm
23:23 21.8 °C 17.6 °C 1016.1 hPa East 1.6 km/h 4.8 km/h 77 % 0 mm
23:28 21.7 °C 17.5 °C 1016.1 hPa ESE 1.6 km/h 4.8 km/h 77 % 0 mm
23:33 21.7 °C 17.5 °C 1016.1 hPa Calm   4.8 km/h 77 % 0 mm
23:38 21.6 °C 17.4 °C 1016.1 hPa Calm   4.8 km/h 77 % 0 mm
23:43 21.6 °C 17.6 °C 1016.1 hPa Calm   4.8 km/h 78 % 0 mm
23:48 21.4 °C 17.4 °C 1016.1 hPa Calm   4.8 km/h 78 % 0 mm
23:53 21.4 °C 17.6 °C 1016.1 hPa Calm   1.6 km/h 79 % 0 mm
23:58 21.3 °C 17.5 °C 1015.8 hPa ESE 1.6 km/h 3.2 km/h 79 % 0 mm
Spring, Texas: Villages of Bridgestone
Compliments of Weather Underground - 3.25 mb

Script developed by  Jim McMurry - jmcmurry@mwt.net Adapted for the template by  Wim van der Kuil - Leuven-Template.eu

You find our weather info also at:

UK Metoffice

WeatherCloud

Weather Underground

Mid-South Weather Network

AWEKAS

Citizen Weather Observer Program (CWOP)

HAMweather, WeatherForYou, PWS Weather

Equipment we use:

Weather-station
Davis Vantage Vue

Weather-program
Meteohub

Weather-server
Debian 7.9 x86 (Guest)

Provider
DreamHost

Davis Vantage Vue

Meteohub

Debian 7.9 x86 (Guest)

DreamHost